createdAt,value
2022-10-18T00:02:24.887Z,69.75
2022-10-18T00:04:51.470Z,69.49
2022-10-18T00:07:18.106Z,68.76
2022-10-18T00:09:44.717Z,68.86
2022-10-18T00:12:11.415Z,68.74
2022-10-18T00:14:38.000Z,70.78
2022-10-18T00:17:04.669Z,70.47
2022-10-18T00:19:31.233Z,69.32
2022-10-18T00:21:57.905Z,69.70
2022-10-18T00:24:24.516Z,69.53
2022-10-18T00:26:51.157Z,69.08
2022-10-18T00:29:17.725Z,69.65
2022-10-18T00:31:44.709Z,68.65
2022-10-18T00:34:14.585Z,67.82
2022-10-18T00:36:42.527Z,68.40
2022-10-18T00:39:14.519Z,68.52
2022-10-18T00:41:41.155Z,68.93
2022-10-18T00:44:27.688Z,67.74
2022-10-18T00:47:03.516Z,68.45
2022-10-18T00:49:34.147Z,68.18
2022-10-18T00:52:11.036Z,67.53
2022-10-18T00:54:41.212Z,69.15
2022-10-18T00:57:08.855Z,69.41
2022-10-18T00:59:36.105Z,68.94
2022-10-18T01:02:03.988Z,69.96
2022-10-18T01:04:30.657Z,69.88
2022-10-18T01:07:25.360Z,70.43
2022-10-18T01:10:03.110Z,70.32
2022-10-18T01:12:38.710Z,70.50
2022-10-18T01:15:36.122Z,70.31
2022-10-18T01:18:25.096Z,68.83
2022-10-18T01:21:16.380Z,69.76
2022-10-18T01:24:13.972Z,69.47
2022-10-18T01:26:59.428Z,69.20
2022-10-18T01:29:50.915Z,70.20
2022-10-18T01:32:23.508Z,69.83
2022-10-18T01:34:52.845Z,69.92
2022-10-18T01:37:21.913Z,69.73
2022-10-18T01:39:52.289Z,69.70
2022-10-18T01:42:21.145Z,69.82
2022-10-18T01:44:50.604Z,69.67
2022-10-18T01:47:19.618Z,69.21
2022-10-18T01:49:46.577Z,69.83
2022-10-18T01:52:14.638Z,69.33
2022-10-18T01:54:45.204Z,69.59
2022-10-18T01:57:21.685Z,70.45
2022-10-18T02:00:03.624Z,69.30
2022-10-18T02:02:41.143Z,69.93
2022-10-18T02:05:13.839Z,70.28
2022-10-18T02:07:55.357Z,70.98
2022-10-18T02:10:43.644Z,70.65
2022-10-18T02:13:16.452Z,70.38
2022-10-18T02:15:47.315Z,69.78
2022-10-18T02:18:22.570Z,69.41
2022-10-18T02:20:49.840Z,69.06
2022-10-18T02:23:19.441Z,70.24
2022-10-18T02:25:46.123Z,70.35
2022-10-18T02:28:13.252Z,70.83
2022-10-18T02:30:49.026Z,70.35
2022-10-18T02:33:23.863Z,69.75
2022-10-18T02:35:56.993Z,70.21
2022-10-18T02:38:25.728Z,70.01
2022-10-18T02:40:52.522Z,70.79
2022-10-18T02:43:19.347Z,70.53
2022-10-18T02:45:45.980Z,70.57
2022-10-18T02:48:12.586Z,70.22
2022-10-18T02:50:39.187Z,71.27
2022-10-18T02:53:06.407Z,71.25
2022-10-18T02:55:33.212Z,71.13
2022-10-18T02:58:00.026Z,71.56
2022-10-18T03:00:26.608Z,71.79
2022-10-18T03:02:53.892Z,71.74
2022-10-18T03:09:33.919Z,72.37
2022-10-18T03:12:00.539Z,72.28
2022-10-18T03:14:27.159Z,71.18
2022-10-18T03:16:53.838Z,70.84
2022-10-18T03:19:20.455Z,69.86
2022-10-18T03:21:47.123Z,70.70
2022-10-18T03:24:13.737Z,70.57
2022-10-18T03:26:40.578Z,70.21
2022-10-18T03:29:07.649Z,72.34
2022-10-18T03:31:34.391Z,71.91
2022-10-18T03:34:01.001Z,71.27
2022-10-18T03:36:27.781Z,70.50
2022-10-18T03:38:54.402Z,69.86
2022-10-18T03:41:21.095Z,69.58
2022-10-18T03:43:48.044Z,72.16
2022-10-18T03:46:14.713Z,72.14
2022-10-18T03:48:41.315Z,72.32
2022-10-18T03:51:07.947Z,73.37
2022-10-18T03:53:34.551Z,73.60
2022-10-18T03:56:01.179Z,72.42
2022-10-18T03:58:27.834Z,71.49
2022-10-18T04:00:55.606Z,72.61
2022-10-18T04:03:23.203Z,72.77
2022-10-18T04:05:50.510Z,72.49
2022-10-18T04:08:17.899Z,72.39
2022-10-18T04:10:44.428Z,72.16
2022-10-18T04:13:11.164Z,73.19
2022-10-18T04:15:37.878Z,73.25
2022-10-18T04:18:04.536Z,73.57
2022-10-18T04:20:31.188Z,71.94
2022-10-18T04:22:58.203Z,72.46
2022-10-18T04:25:25.549Z,72.86
2022-10-18T04:27:52.371Z,71.65
2022-10-18T04:30:19.160Z,72.43
2022-10-18T04:32:45.712Z,71.55
2022-10-18T04:35:12.317Z,72.85
2022-10-18T04:37:38.967Z,71.83
2022-10-18T04:40:06.255Z,70.09
2022-10-18T04:42:32.811Z,70.09
2022-10-18T04:44:59.474Z,71.12
2022-10-18T04:47:26.026Z,73.21
2022-10-18T04:49:52.619Z,72.97
2022-10-18T04:52:19.332Z,73.27
2022-10-18T04:54:45.978Z,73.41
2022-10-18T04:57:12.567Z,73.57
2022-10-18T04:59:39.221Z,73.27
2022-10-18T05:02:05.775Z,72.50
2022-10-18T05:04:32.503Z,72.85
2022-10-18T05:06:59.136Z,72.88
2022-10-18T05:09:25.760Z,72.24
2022-10-18T05:11:52.328Z,71.98
2022-10-18T05:14:19.171Z,71.11
2022-10-18T05:16:45.872Z,72.16
2022-10-18T05:19:12.528Z,73.82
2022-10-18T05:21:39.156Z,73.35
2022-10-18T05:24:06.090Z,72.30
2022-10-18T05:26:32.651Z,70.79
2022-10-18T05:28:59.426Z,71.33
2022-10-18T05:31:26.093Z,72.09
2022-10-18T05:33:52.699Z,72.56
2022-10-18T05:36:19.330Z,72.31
2022-10-18T05:38:47.912Z,72.31
2022-10-18T05:41:14.820Z,71.14
2022-10-18T05:43:41.564Z,70.85
2022-10-18T05:46:13.628Z,70.50
2022-10-18T05:48:43.562Z,69.89
2022-10-18T05:51:10.294Z,71.44
2022-10-18T05:53:38.092Z,70.44
2022-10-18T05:56:06.143Z,70.95
2022-10-18T05:58:33.488Z,71.81
2022-10-18T06:01:01.537Z,72.70
2022-10-18T06:03:30.346Z,70.84
2022-10-18T06:06:15.835Z,70.49
2022-10-18T06:08:43.854Z,74.13
2022-10-18T06:11:16.992Z,74.26
2022-10-18T06:13:45.710Z,71.32
2022-10-18T06:16:13.712Z,72.30
2022-10-18T06:18:40.664Z,71.75
2022-10-18T06:21:08.083Z,70.72
2022-10-18T06:23:35.195Z,70.29
2022-10-18T06:26:06.754Z,69.64
2022-10-18T06:28:37.392Z,69.72
2022-10-18T06:31:05.892Z,70.69
2022-10-18T06:33:33.938Z,69.98
2022-10-18T06:36:03.223Z,69.92
2022-10-18T06:38:30.255Z,70.36
2022-10-18T06:40:58.067Z,70.48
2022-10-18T06:43:25.102Z,70.87
2022-10-18T06:45:52.861Z,70.76
2022-10-18T06:50:57.137Z,71.92
2022-10-18T06:53:29.343Z,72.01
2022-10-18T06:56:05.173Z,72.79
2022-10-18T06:58:32.383Z,72.46
2022-10-18T07:00:59.328Z,71.54
2022-10-18T07:03:26.376Z,72.12
2022-10-18T07:05:52.904Z,71.31
2022-10-18T07:08:19.536Z,70.41
2022-10-18T07:10:52.770Z,69.99
2022-10-18T07:13:31.908Z,70.14
2022-10-18T07:16:19.067Z,69.76
2022-10-18T07:18:50.488Z,71.02
2022-10-18T07:21:20.150Z,70.93
2022-10-18T07:23:47.407Z,72.50
2022-10-18T07:26:15.445Z,71.38
2022-10-18T07:28:43.627Z,72.28
2022-10-18T07:31:11.613Z,71.48
2022-10-18T07:33:38.649Z,70.42
2022-10-18T07:36:07.853Z,70.21
2022-10-18T07:38:35.496Z,70.66
2022-10-18T07:41:04.291Z,69.95
2022-10-18T07:43:30.963Z,70.39
2022-10-18T07:46:00.222Z,70.54
2022-10-18T07:48:27.607Z,70.76
2022-10-18T07:50:54.313Z,70.11
2022-10-18T07:53:20.876Z,70.63
2022-10-18T07:55:47.479Z,70.45
2022-10-18T07:58:14.068Z,70.23
2022-10-18T08:00:40.764Z,71.47
2022-10-18T08:03:07.359Z,70.69
2022-10-18T08:05:34.227Z,71.17
2022-10-18T08:08:04.250Z,70.86
2022-10-18T08:10:35.204Z,71.58
2022-10-18T08:13:01.793Z,71.26
2022-10-18T08:15:28.439Z,71.48
2022-10-18T08:17:55.066Z,71.01
2022-10-18T08:20:30.311Z,71.52
2022-10-18T08:23:00.368Z,70.96
2022-10-18T08:25:27.603Z,71.30
2022-10-18T08:27:54.219Z,70.92
2022-10-18T08:30:21.034Z,69.72
2022-10-18T08:32:47.644Z,70.77
2022-10-18T08:35:14.316Z,71.03
2022-10-18T08:37:40.960Z,70.68
2022-10-18T08:40:08.124Z,70.11
2022-10-18T08:42:58.024Z,70.24
2022-10-18T08:45:40.931Z,69.52
2022-10-18T08:48:36.067Z,71.12
2022-10-18T08:51:06.750Z,71.05
2022-10-18T08:53:45.430Z,70.66
2022-10-18T08:56:21.544Z,70.33
2022-10-18T08:58:48.460Z,69.48
2022-10-18T09:01:18.059Z,70.11
2022-10-18T09:04:21.624Z,70.94
2022-10-18T09:06:52.597Z,69.61
2022-10-18T09:09:54.644Z,70.49
2022-10-18T09:12:57.072Z,69.62
2022-10-18T09:15:55.528Z,69.58
2022-10-18T09:18:29.424Z,71.92
2022-10-18T09:21:00.988Z,72.44
2022-10-18T09:23:30.566Z,72.23
2022-10-18T09:26:15.074Z,71.37
2022-10-18T09:28:50.415Z,70.52
2022-10-18T09:31:17.095Z,70.26
2022-10-18T09:33:56.410Z,70.41
2022-10-18T09:36:27.755Z,70.27
2022-10-18T09:39:00.508Z,69.75
2022-10-18T09:41:51.793Z,69.95
2022-10-18T09:44:25.971Z,72.68
2022-10-18T09:47:00.152Z,72.02
2022-10-18T09:49:31.921Z,71.65
2022-10-18T09:52:02.096Z,71.25
2022-10-18T09:54:40.656Z,70.62
2022-10-18T09:57:15.319Z,70.25
2022-10-18T09:59:49.758Z,70.40
2022-10-18T10:02:24.371Z,69.05
2022-10-18T10:04:54.140Z,69.37
2022-10-18T10:07:25.235Z,68.85
2022-10-18T10:10:04.974Z,68.64
2022-10-18T10:12:39.947Z,67.67
2022-10-18T10:15:13.715Z,67.76
2022-10-18T10:17:40.473Z,67.88
2022-10-18T10:20:20.695Z,66.70
2022-10-18T10:22:49.744Z,67.15
2022-10-18T10:25:24.426Z,67.61
2022-10-18T10:27:51.499Z,68.54
2022-10-18T10:30:30.231Z,66.64
2022-10-18T10:32:57.203Z,67.03
2022-10-18T10:35:53.221Z,67.29
2022-10-18T10:38:25.926Z,67.58
2022-10-18T10:40:53.287Z,68.37
2022-10-18T10:43:36.986Z,68.62
2022-10-18T10:46:12.098Z,68.81
2022-10-18T10:49:21.007Z,69.16
2022-10-18T10:52:02.447Z,69.52
2022-10-18T10:54:47.559Z,68.65
2022-10-18T10:57:29.197Z,68.54
2022-10-18T10:59:59.775Z,68.58
2022-10-18T11:02:34.379Z,68.10
2022-10-18T11:05:23.942Z,67.44
2022-10-18T11:07:55.353Z,68.64
2022-10-18T11:10:27.212Z,68.34
2022-10-18T11:13:05.461Z,67.16
2022-10-18T11:15:59.377Z,66.95
2022-10-18T11:18:33.403Z,65.50
2022-10-18T11:21:08.631Z,63.43
2022-10-18T11:23:38.574Z,61.77
2022-10-18T11:26:11.113Z,61.25
2022-10-18T11:28:46.632Z,60.58
2022-10-18T11:31:27.486Z,59.79
2022-10-18T11:34:10.566Z,60.13
2022-10-18T11:37:30.004Z,58.02
2022-10-18T11:40:15.476Z,55.19
2022-10-18T11:43:01.437Z,53.82
2022-10-18T11:45:28.138Z,54.66
2022-10-18T11:48:10.007Z,54.76
2022-10-18T11:50:59.828Z,56.77
2022-10-18T11:53:41.398Z,57.23
2022-10-18T11:56:28.487Z,56.74
2022-10-18T11:59:01.122Z,54.29
2022-10-18T12:01:30.489Z,53.68
2022-10-18T12:04:05.655Z,53.16
2022-10-18T12:06:38.894Z,54.12
2022-10-18T12:09:23.975Z,53.80
2022-10-18T12:11:57.397Z,54.35
2022-10-18T12:14:40.366Z,55.87
2022-10-18T12:17:43.972Z,55.53
2022-10-18T12:20:23.286Z,54.19
2022-10-18T12:22:59.498Z,54.02
2022-10-18T12:25:28.739Z,53.82
2022-10-18T12:28:01.921Z,53.50
2022-10-18T12:30:40.914Z,52.10
2022-10-18T12:33:27.736Z,52.50
2022-10-18T12:36:26.596Z,52.63
2022-10-18T12:39:00.336Z,53.41
2022-10-18T12:41:30.095Z,52.99
2022-10-18T12:44:05.883Z,52.44
2022-10-18T12:46:49.355Z,52.14
2022-10-18T12:49:23.081Z,50.62
2022-10-18T12:51:57.129Z,52.03
2022-10-18T12:54:40.117Z,52.67
2022-10-18T12:57:22.206Z,50.76
2022-10-18T12:59:48.991Z,53.28
2022-10-18T13:02:22.413Z,51.13
2022-10-18T13:04:49.834Z,49.91
2022-10-18T13:07:43.409Z,50.06
2022-10-18T13:10:10.078Z,50.35
2022-10-18T13:12:49.255Z,50.53
2022-10-18T13:15:49.171Z,49.46
2022-10-18T13:18:27.604Z,49.51
2022-10-18T13:21:17.867Z,50.77
2022-10-18T13:24:02.736Z,51.59
2022-10-18T13:27:24.528Z,50.64
2022-10-18T13:29:56.420Z,50.92
2022-10-18T13:32:55.291Z,52.37
2022-10-18T13:35:40.760Z,50.79
2022-10-18T13:38:25.236Z,49.64
2022-10-18T13:41:07.376Z,50.91
2022-10-18T13:43:52.841Z,50.13
2022-10-18T13:46:20.909Z,50.22
2022-10-18T13:48:51.640Z,51.10
2022-10-18T13:52:00.042Z,51.85
2022-10-18T13:54:38.712Z,51.64
2022-10-18T13:57:29.824Z,51.35
2022-10-18T14:00:33.795Z,50.10
2022-10-18T14:03:56.446Z,49.65
2022-10-18T14:06:24.456Z,49.21
2022-10-18T14:09:09.447Z,48.27
2022-10-18T14:12:11.509Z,47.50
2022-10-18T14:14:45.365Z,47.43
2022-10-18T14:17:42.995Z,46.92
2022-10-18T14:20:27.329Z,45.83
2022-10-18T14:23:20.548Z,45.75
2022-10-18T14:25:48.112Z,46.05
2022-10-18T14:28:21.630Z,45.53
2022-10-18T14:30:58.935Z,45.11
2022-10-18T14:33:57.251Z,46.02
2022-10-18T14:36:27.798Z,45.15
2022-10-18T14:38:58.892Z,45.07
2022-10-18T14:41:27.943Z,45.86
2022-10-18T14:44:11.818Z,46.84
2022-10-18T14:46:46.517Z,46.77
2022-10-18T14:49:15.335Z,46.57
2022-10-18T14:51:44.100Z,47.09
2022-10-18T14:54:22.303Z,46.86
2022-10-18T14:56:50.837Z,46.76
2022-10-18T14:59:24.564Z,45.55
2022-10-18T15:01:54.567Z,47.20
2022-10-18T15:04:26.333Z,44.97
2022-10-18T15:06:55.924Z,45.19
2022-10-18T15:09:24.101Z,46.95
2022-10-18T15:11:51.835Z,45.77
2022-10-18T15:14:20.464Z,45.82
2022-10-18T15:16:48.888Z,46.78
2022-10-18T15:19:15.397Z,46.12
2022-10-18T15:22:19.859Z,48.31
2022-10-18T15:24:43.867Z,47.33
2022-10-18T15:27:24.017Z,47.30
2022-10-18T15:29:50.804Z,47.27
2022-10-18T15:32:30.882Z,47.34
2022-10-18T15:35:10.045Z,47.24
2022-10-18T15:37:45.272Z,49.03
2022-10-18T15:40:18.544Z,47.88
2022-10-18T15:42:45.540Z,47.87
2022-10-18T15:45:24.169Z,47.82
2022-10-18T15:48:06.020Z,49.17
2022-10-18T15:50:40.988Z,50.06
2022-10-18T15:53:23.669Z,51.75
2022-10-18T15:55:57.300Z,53.65
2022-10-18T15:58:28.899Z,54.02
2022-10-18T16:00:59.301Z,55.02
2022-10-18T16:03:26.954Z,55.20
2022-10-18T16:06:00.565Z,54.68
2022-10-18T16:08:30.673Z,54.94
2022-10-18T16:10:58.907Z,55.53
2022-10-18T16:13:26.743Z,56.61
2022-10-18T16:15:55.762Z,56.41
2022-10-18T16:18:23.920Z,56.50
2022-10-18T16:20:50.563Z,55.72
2022-10-18T16:23:21.679Z,56.52
2022-10-18T16:25:48.413Z,56.69
2022-10-18T16:28:18.131Z,57.50
2022-10-18T16:30:52.633Z,57.44
2022-10-18T16:33:21.542Z,57.38
2022-10-18T16:35:48.910Z,56.69
2022-10-18T16:38:24.670Z,57.61
2022-10-18T16:40:51.535Z,57.94
2022-10-18T16:43:18.308Z,57.34
2022-10-18T16:45:45.527Z,57.96
2022-10-18T16:48:20.460Z,57.46
2022-10-18T16:50:47.876Z,58.00
2022-10-18T16:53:14.983Z,59.10
2022-10-18T16:55:42.886Z,59.14
2022-10-18T16:58:18.037Z,59.06
2022-10-18T17:00:46.910Z,58.29
2022-10-18T17:03:13.943Z,58.76
2022-10-18T17:05:41.630Z,58.78
2022-10-18T17:08:18.829Z,59.68
2022-10-18T17:10:46.283Z,59.37
2022-10-18T17:13:12.855Z,59.50
2022-10-18T17:15:42.404Z,58.95
2022-10-18T17:18:15.045Z,58.95
2022-10-18T17:20:42.250Z,59.76
2022-10-18T17:23:09.415Z,58.52
2022-10-18T17:25:52.667Z,59.32
2022-10-18T17:28:30.591Z,59.96
2022-10-18T17:30:57.230Z,60.12
2022-10-18T17:33:23.824Z,58.93
2022-10-18T17:35:50.400Z,59.10
2022-10-18T17:38:17.059Z,60.48
2022-10-18T17:40:43.691Z,60.21
2022-10-18T17:43:10.470Z,59.27
2022-10-18T17:45:37.063Z,59.27
2022-10-18T17:48:03.864Z,59.99
2022-10-18T17:50:30.423Z,60.03
2022-10-18T17:52:57.432Z,59.23
2022-10-18T17:55:24.012Z,59.38
2022-10-18T17:57:51.567Z,60.00
2022-10-18T18:00:18.091Z,59.94
2022-10-18T18:02:44.862Z,60.64
2022-10-18T18:05:12.637Z,60.05
2022-10-18T18:07:39.309Z,59.58
2022-10-18T18:10:06.353Z,59.70
2022-10-18T18:12:33.185Z,59.75
2022-10-18T18:15:00.023Z,58.69
2022-10-18T18:17:34.069Z,59.06
2022-10-18T18:20:01.289Z,58.23
2022-10-18T18:22:27.843Z,57.26
2022-10-18T18:24:54.483Z,57.29
2022-10-18T18:27:21.097Z,56.88
2022-10-18T18:29:48.328Z,56.42
2022-10-18T18:32:14.913Z,56.52
2022-10-18T18:34:42.628Z,58.78
2022-10-18T18:37:09.610Z,57.94
2022-10-18T18:39:38.836Z,57.83
2022-10-18T18:42:06.213Z,57.52
2022-10-18T18:44:33.985Z,56.78
2022-10-18T18:47:01.721Z,57.94
2022-10-18T18:49:28.500Z,56.77
2022-10-18T18:51:55.100Z,57.18
2022-10-18T18:54:22.146Z,57.02
2022-10-18T18:56:48.753Z,58.78
2022-10-18T18:59:16.105Z,59.06
2022-10-18T19:01:43.906Z,58.36
2022-10-18T19:04:10.926Z,58.51
2022-10-18T19:06:42.689Z,58.30
2022-10-18T19:09:23.021Z,57.95
2022-10-18T19:11:52.524Z,58.84
2022-10-18T19:14:19.323Z,58.58
2022-10-18T19:16:50.907Z,58.97
2022-10-18T19:19:25.548Z,58.64
2022-10-18T19:21:57.019Z,58.54
2022-10-18T19:24:25.722Z,58.24
2022-10-18T19:26:58.246Z,59.12
2022-10-18T19:29:30.199Z,58.49
2022-10-18T19:31:58.802Z,59.68
2022-10-18T19:34:27.485Z,59.79
2022-10-18T19:36:54.815Z,60.31
2022-10-18T19:39:29.325Z,59.34
2022-10-18T19:41:58.540Z,58.97
2022-10-18T19:44:28.484Z,59.13
2022-10-18T19:46:55.550Z,59.44
2022-10-18T19:49:22.311Z,59.74
2022-10-18T19:51:49.200Z,59.56
2022-10-18T19:54:16.496Z,59.32
2022-10-18T19:56:43.926Z,59.24
2022-10-18T19:59:11.816Z,59.30
2022-10-18T20:01:38.861Z,58.92
2022-10-18T20:04:07.356Z,59.04
2022-10-18T20:06:35.142Z,59.16
2022-10-18T20:09:02.947Z,59.48
2022-10-18T20:11:30.455Z,59.24
2022-10-18T20:13:57.700Z,59.32
2022-10-18T20:16:28.695Z,59.66
2022-10-18T20:19:00.382Z,60.11
2022-10-18T20:21:28.515Z,60.06
2022-10-18T20:23:55.764Z,60.21
2022-10-18T20:26:23.384Z,60.69
2022-10-18T20:28:57.169Z,58.74
2022-10-18T20:31:34.529Z,59.39
2022-10-18T20:34:04.396Z,59.74
2022-10-18T20:36:32.399Z,59.83
2022-10-18T20:39:00.099Z,60.39
2022-10-18T20:41:32.037Z,59.89
2022-10-18T20:44:01.614Z,60.31
2022-10-18T20:46:33.828Z,59.82
2022-10-18T20:49:00.574Z,60.96
2022-10-18T20:51:27.552Z,61.22
2022-10-18T20:53:54.398Z,59.96
2022-10-18T20:56:23.988Z,60.58
2022-10-18T20:58:52.075Z,60.00
2022-10-18T21:01:18.670Z,60.05
2022-10-18T21:03:47.414Z,59.97
2022-10-18T21:06:19.779Z,58.92
2022-10-18T21:08:46.741Z,59.90
2022-10-18T21:11:14.297Z,59.46
2022-10-18T21:13:40.983Z,59.77
2022-10-18T21:16:07.790Z,60.93
2022-10-18T21:18:36.352Z,60.82
2022-10-18T21:21:14.862Z,60.35
2022-10-18T21:23:41.747Z,60.81
2022-10-18T21:26:13.565Z,60.62
2022-10-18T21:28:40.678Z,59.82
2022-10-18T21:31:12.874Z,60.24
2022-10-18T21:33:40.818Z,59.73
2022-10-18T21:36:08.010Z,59.82
2022-10-18T21:38:34.934Z,59.22
2022-10-18T21:41:01.925Z,59.44
2022-10-18T21:43:28.600Z,61.74
2022-10-18T21:46:02.021Z,59.94
2022-10-18T21:48:28.657Z,60.55
2022-10-18T21:50:55.238Z,60.00
2022-10-18T21:53:22.005Z,60.27
2022-10-18T21:55:49.102Z,60.91
2022-10-18T21:58:15.700Z,60.96
2022-10-18T22:00:42.361Z,60.93
2022-10-18T22:03:10.782Z,60.59
2022-10-18T22:05:37.560Z,61.09
2022-10-18T22:08:05.009Z,60.55
2022-10-18T22:10:32.097Z,60.46
2022-10-18T22:12:58.951Z,60.79
2022-10-18T22:15:25.843Z,61.07
2022-10-18T22:17:52.504Z,61.58
2022-10-18T22:20:19.093Z,60.28
2022-10-18T22:22:45.800Z,61.45
2022-10-18T22:25:12.355Z,60.28
2022-10-18T22:27:39.068Z,60.39
2022-10-18T22:30:06.339Z,60.48
2022-10-18T22:32:32.963Z,60.34
2022-10-18T22:34:59.513Z,60.19
2022-10-18T22:37:26.175Z,60.16
2022-10-18T22:39:52.764Z,60.23
2022-10-18T22:42:19.363Z,59.61
2022-10-18T22:44:45.948Z,59.88
2022-10-18T22:47:12.564Z,59.90
2022-10-18T22:49:39.109Z,59.29
2022-10-18T22:52:05.869Z,59.63
2022-10-18T22:54:32.427Z,60.04
2022-10-18T22:56:59.088Z,59.50
2022-10-18T22:59:25.684Z,59.13
2022-10-18T23:01:52.333Z,59.32
2022-10-18T23:04:18.903Z,59.40
2022-10-18T23:06:45.630Z,60.06
2022-10-18T23:09:12.245Z,60.56
2022-10-18T23:11:38.923Z,60.12
2022-10-18T23:14:07.141Z,59.56
2022-10-18T23:16:34.000Z,59.58
2022-10-18T23:19:00.841Z,59.88
2022-10-18T23:21:28.299Z,59.65
2022-10-18T23:23:56.422Z,60.84
2022-10-18T23:26:25.633Z,59.79
2022-10-18T23:28:53.295Z,59.83
2022-10-18T23:31:24.251Z,59.91
2022-10-18T23:33:53.986Z,60.27
2022-10-18T23:36:21.887Z,60.11
2022-10-18T23:38:48.751Z,60.37
2022-10-18T23:41:17.010Z,60.73
2022-10-18T23:43:44.678Z,60.22
2022-10-18T23:46:12.913Z,60.98
2022-10-18T23:48:39.737Z,60.37
2022-10-18T23:51:06.615Z,61.02
2022-10-18T23:53:33.763Z,61.07
2022-10-18T23:56:15.740Z,60.13
2022-10-18T23:58:43.934Z,60.33
